createdAt,value
2023-01-20T00:01:20.874Z,79.30
2023-01-20T00:03:33.440Z,82.20
2023-01-20T00:05:52.956Z,83.20
2023-01-20T00:08:05.839Z,88.30
2023-01-20T00:10:18.538Z,90.80
2023-01-20T00:12:31.972Z,96.40
2023-01-20T00:14:44.564Z,90.10
2023-01-20T00:16:57.438Z,86.90
2023-01-20T00:19:13.236Z,84.60
2023-01-20T00:21:25.874Z,81.90
2023-01-20T00:23:39.970Z,73.60
2023-01-20T00:25:52.534Z,69.10
2023-01-20T00:28:05.502Z,69.30
2023-01-20T00:30:18.135Z,69.20
2023-01-20T00:32:30.855Z,67.00
2023-01-20T00:34:43.471Z,64.30
2023-01-20T00:36:56.078Z,64.00
2023-01-20T00:39:08.735Z,68.50
2023-01-20T00:41:21.414Z,68.60
2023-01-20T00:43:34.465Z,64.00
2023-01-20T00:45:47.071Z,62.50
2023-01-20T00:47:59.617Z,61.10
2023-01-20T00:50:12.225Z,64.70
2023-01-20T00:52:24.761Z,61.20
2023-01-20T00:54:37.287Z,59.50
2023-01-20T00:56:49.802Z,56.20
2023-01-20T00:59:02.681Z,55.70
2023-01-20T01:01:15.452Z,58.30
2023-01-20T01:03:28.945Z,56.90
2023-01-20T01:05:41.546Z,55.50
2023-01-20T01:07:54.168Z,55.40
2023-01-20T01:10:07.076Z,54.80
2023-01-20T01:12:19.689Z,58.20
2023-01-20T01:14:32.511Z,58.20
2023-01-20T01:16:45.079Z,58.50
2023-01-20T01:18:57.925Z,57.40
2023-01-20T01:21:13.115Z,56.00
2023-01-20T01:23:25.709Z,54.20
2023-01-20T01:25:38.347Z,56.20
2023-01-20T01:27:50.884Z,54.10
2023-01-20T01:30:04.730Z,52.10
2023-01-20T01:32:17.294Z,52.70
2023-01-20T01:34:30.507Z,51.60
2023-01-20T01:36:43.103Z,50.50
2023-01-20T01:38:58.947Z,50.60
2023-01-20T01:41:13.747Z,50.30
2023-01-20T01:43:29.462Z,49.00
2023-01-20T01:45:42.107Z,47.70
2023-01-20T01:48:03.399Z,46.80
2023-01-20T01:50:21.388Z,46.40
2023-01-20T01:52:34.892Z,45.50
2023-01-20T01:54:49.159Z,44.40
2023-01-20T01:57:02.033Z,44.30
2023-01-20T01:59:16.132Z,43.30
2023-01-20T02:01:29.605Z,45.80
2023-01-20T02:03:52.376Z,47.00
2023-01-20T02:06:05.830Z,47.10
2023-01-20T02:08:19.667Z,45.90
2023-01-20T02:10:32.324Z,47.70
2023-01-20T02:12:49.559Z,48.30
2023-01-20T02:15:04.127Z,46.10
2023-01-20T02:17:26.863Z,46.00
2023-01-20T02:20:16.482Z,47.00
2023-01-20T02:22:41.232Z,48.00
2023-01-20T02:25:22.889Z,47.20
2023-01-20T02:28:12.723Z,52.00
2023-01-20T02:31:05.950Z,52.50
2023-01-20T02:33:44.750Z,50.50
2023-01-20T02:36:08.983Z,50.40
2023-01-20T02:38:34.977Z,49.70
2023-01-20T02:41:08.323Z,50.70
2023-01-20T02:43:36.248Z,49.10
2023-01-20T02:45:59.264Z,49.20
2023-01-20T02:48:20.032Z,51.30
2023-01-20T02:50:46.169Z,53.50
2023-01-20T02:53:01.939Z,53.70
2023-01-20T02:55:29.146Z,53.30
2023-01-20T02:57:50.522Z,53.00
2023-01-20T03:00:12.810Z,52.60
2023-01-20T03:02:27.935Z,56.00
2023-01-20T03:04:49.989Z,55.60
2023-01-20T03:07:04.664Z,54.10
2023-01-20T03:09:23.838Z,55.00
2023-01-20T03:11:41.374Z,54.90
2023-01-20T03:14:04.363Z,52.40
2023-01-20T03:16:23.463Z,55.10
2023-01-20T03:18:37.800Z,52.30
2023-01-20T03:20:50.430Z,52.30
2023-01-20T03:23:02.971Z,51.80
2023-01-20T03:25:18.410Z,52.70
2023-01-20T03:27:31.419Z,50.10
2023-01-20T03:29:46.125Z,50.90
2023-01-20T03:32:01.278Z,51.00
2023-01-20T03:34:22.253Z,52.10
2023-01-20T03:36:34.871Z,50.70
2023-01-20T03:38:47.969Z,49.90
2023-01-20T03:41:14.708Z,48.70
2023-01-20T03:43:58.285Z,47.20
2023-01-20T03:46:29.201Z,47.00
2023-01-20T03:48:53.838Z,48.90
2023-01-20T03:51:13.616Z,48.60
2023-01-20T03:53:45.480Z,48.80
2023-01-20T03:56:06.434Z,48.50
2023-01-20T03:58:24.601Z,48.40
2023-01-20T04:00:43.350Z,47.30
2023-01-20T04:03:00.724Z,49.20
2023-01-20T04:05:14.421Z,47.60
2023-01-20T04:07:27.858Z,48.80
2023-01-20T04:09:45.539Z,47.40
2023-01-20T04:11:59.149Z,47.50
2023-01-20T04:14:11.753Z,48.30
2023-01-20T04:16:25.777Z,48.90
2023-01-20T04:18:42.237Z,47.50
2023-01-20T04:21:02.518Z,48.30
2023-01-20T04:23:29.548Z,46.60
2023-01-20T04:25:42.612Z,45.10
2023-01-20T04:27:55.302Z,45.00
2023-01-20T04:30:09.280Z,45.00
2023-01-20T04:32:21.885Z,45.00
2023-01-20T04:34:34.493Z,47.30
2023-01-20T04:36:47.088Z,45.60
2023-01-20T04:38:59.776Z,45.00
2023-01-20T04:41:12.753Z,45.70
2023-01-20T04:43:25.328Z,45.20
2023-01-20T04:45:38.221Z,45.50
2023-01-20T04:47:50.882Z,47.60
2023-01-20T04:50:03.591Z,50.80
2023-01-20T04:52:17.006Z,56.90
2023-01-20T04:54:29.679Z,57.40
2023-01-20T04:56:43.304Z,56.40
2023-01-20T04:58:55.998Z,56.10
2023-01-20T05:01:09.402Z,56.60
2023-01-20T05:03:22.061Z,56.10
2023-01-20T05:05:34.818Z,55.50
2023-01-20T05:07:47.314Z,53.70
2023-01-20T05:09:59.824Z,53.40
2023-01-20T05:12:12.340Z,51.60
2023-01-20T05:14:24.900Z,52.00
2023-01-20T05:16:37.915Z,48.70
2023-01-20T05:18:50.870Z,51.00
2023-01-20T05:21:05.260Z,54.90
2023-01-20T05:23:17.845Z,53.10
2023-01-20T05:25:30.429Z,51.60
2023-01-20T05:27:44.955Z,50.40
2023-01-20T05:29:57.519Z,46.90
2023-01-20T05:32:10.118Z,46.00
2023-01-20T05:34:22.869Z,47.10
2023-01-20T05:36:35.593Z,48.30
2023-01-20T05:38:48.288Z,48.80
2023-01-20T05:41:06.706Z,49.60
2023-01-20T05:43:19.242Z,47.70
2023-01-20T05:45:32.427Z,45.60
2023-01-20T05:47:44.999Z,46.30
2023-01-20T05:49:57.637Z,46.60
2023-01-20T05:52:10.222Z,45.30
2023-01-20T05:54:22.751Z,46.00
2023-01-20T05:56:35.330Z,46.10
2023-01-20T05:58:47.864Z,45.30
2023-01-20T06:01:12.457Z,46.50
2023-01-20T06:03:25.090Z,47.90
2023-01-20T06:05:37.702Z,45.20
2023-01-20T06:07:50.200Z,45.00
2023-01-20T06:10:03.345Z,45.80
2023-01-20T06:12:15.981Z,46.60
2023-01-20T06:14:28.524Z,46.50
2023-01-20T06:16:41.156Z,46.30
2023-01-20T06:18:53.932Z,45.70
2023-01-20T06:21:06.569Z,46.50
2023-01-20T06:23:19.224Z,44.30
2023-01-20T06:25:31.761Z,45.00
2023-01-20T06:27:44.320Z,44.00
2023-01-20T06:29:56.929Z,42.70
2023-01-20T06:32:09.523Z,43.50
2023-01-20T06:34:22.154Z,44.60
2023-01-20T06:36:34.833Z,43.40
2023-01-20T06:38:50.542Z,42.70
2023-01-20T06:41:05.866Z,43.40
2023-01-20T06:43:18.533Z,42.80
2023-01-20T06:45:31.167Z,44.30
2023-01-20T06:47:43.749Z,42.70
2023-01-20T06:49:56.312Z,41.80
2023-01-20T06:52:09.732Z,47.70
2023-01-20T06:54:22.412Z,47.20
2023-01-20T06:56:35.575Z,49.80
2023-01-20T06:58:48.551Z,51.30
2023-01-20T07:01:20.392Z,51.00
2023-01-20T07:03:33.222Z,55.30
2023-01-20T07:05:58.775Z,57.60
2023-01-20T07:08:11.660Z,53.20
2023-01-20T07:10:24.199Z,52.80
2023-01-20T07:12:36.916Z,51.40
2023-01-20T07:14:49.552Z,51.90
2023-01-20T07:17:02.127Z,51.40
2023-01-20T07:19:14.728Z,50.30
2023-01-20T07:21:27.574Z,48.90
2023-01-20T07:23:40.196Z,49.40
2023-01-20T07:26:07.230Z,48.70
2023-01-20T07:28:19.888Z,47.60
2023-01-20T07:30:32.538Z,48.10
2023-01-20T07:32:45.285Z,51.20
2023-01-20T07:34:58.016Z,54.00
2023-01-20T07:37:10.558Z,58.80
2023-01-20T07:39:23.110Z,60.80
2023-01-20T07:41:35.723Z,60.20
2023-01-20T07:43:50.721Z,60.90
2023-01-20T07:46:04.983Z,61.90
2023-01-20T07:48:17.637Z,83.50
2023-01-20T07:50:30.171Z,91.90
2023-01-20T07:52:43.215Z,82.00
2023-01-20T07:54:55.792Z,57.10
2023-01-20T07:57:09.260Z,53.90
2023-01-20T07:59:21.858Z,53.10
2023-01-20T08:01:34.551Z,52.30
2023-01-20T08:03:47.979Z,57.20
2023-01-20T08:06:09.840Z,57.10
2023-01-20T08:08:23.122Z,70.10
2023-01-20T08:10:35.722Z,66.50
2023-01-20T08:12:48.339Z,58.70
2023-01-20T08:15:00.873Z,55.50
2023-01-20T08:17:13.773Z,55.60
2023-01-20T08:19:29.911Z,60.30
2023-01-20T08:21:42.608Z,58.30
2023-01-20T08:23:58.731Z,57.20
2023-01-20T08:26:11.380Z,58.90
2023-01-20T08:28:24.072Z,58.30
2023-01-20T08:30:36.695Z,55.80
2023-01-20T08:32:49.538Z,55.50
2023-01-20T08:35:02.158Z,56.10
2023-01-20T08:37:14.736Z,56.70
2023-01-20T08:39:27.346Z,55.20
2023-01-20T08:41:42.985Z,55.00
2023-01-20T08:43:57.627Z,56.10
2023-01-20T08:46:13.231Z,54.20
2023-01-20T08:48:25.972Z,54.00
2023-01-20T08:50:38.515Z,51.60
2023-01-20T08:52:51.122Z,52.40
2023-01-20T08:55:05.330Z,51.30
2023-01-20T08:57:17.827Z,48.70
2023-01-20T08:59:30.391Z,46.90
2023-01-20T09:01:43.789Z,45.90
2023-01-20T09:04:06.431Z,44.80
2023-01-20T09:06:21.699Z,45.40
2023-01-20T09:08:34.959Z,42.80
2023-01-20T09:10:47.611Z,50.00
2023-01-20T09:13:00.199Z,46.30
2023-01-20T09:15:13.213Z,46.10
2023-01-20T09:17:25.867Z,44.00
2023-01-20T09:19:38.425Z,44.00
2023-01-20T09:21:50.957Z,43.60
2023-01-20T09:24:03.703Z,43.20
2023-01-20T09:26:33.478Z,42.70
2023-01-20T09:28:47.133Z,41.00
2023-01-20T09:31:01.664Z,38.80
2023-01-20T09:33:14.396Z,39.40
2023-01-20T09:35:27.031Z,40.40
2023-01-20T09:37:58.112Z,43.10
2023-01-20T09:40:39.234Z,42.80
2023-01-20T09:43:19.049Z,40.70
2023-01-20T09:45:41.247Z,41.40
2023-01-20T09:48:46.416Z,37.10
2023-01-20T09:51:26.579Z,38.50
2023-01-20T09:54:00.226Z,38.20
2023-01-20T09:56:17.294Z,38.20
2023-01-20T09:58:46.558Z,38.90
2023-01-20T10:01:31.367Z,35.90
2023-01-20T10:03:56.935Z,40.20
2023-01-20T10:06:34.517Z,40.30
2023-01-20T10:09:05.982Z,48.80
2023-01-20T10:11:22.114Z,47.80
2023-01-20T10:13:47.247Z,45.10
2023-01-20T10:16:06.648Z,48.00
2023-01-20T10:18:27.111Z,47.70
2023-01-20T10:21:01.514Z,49.40
2023-01-20T10:23:21.833Z,47.20
2023-01-20T10:25:41.379Z,47.40
2023-01-20T10:28:16.540Z,46.50
2023-01-20T10:30:35.713Z,41.00
2023-01-20T10:33:03.375Z,38.90
2023-01-20T10:35:24.926Z,37.40
2023-01-20T10:37:37.989Z,41.30
2023-01-20T10:40:14.118Z,41.20
2023-01-20T10:42:28.489Z,37.00
2023-01-20T10:44:41.858Z,38.20
2023-01-20T10:47:25.039Z,40.00
2023-01-20T10:50:14.785Z,38.00
2023-01-20T10:52:40.151Z,40.40
2023-01-20T10:55:24.182Z,43.60
2023-01-20T10:57:38.257Z,42.10
2023-01-20T10:59:55.668Z,43.80
2023-01-20T11:02:26.147Z,44.60
2023-01-20T11:04:39.090Z,34.80
2023-01-20T11:06:56.671Z,32.10
2023-01-20T11:09:42.709Z,32.70
2023-01-20T11:11:56.585Z,34.80
2023-01-20T11:14:09.309Z,34.40
2023-01-20T11:16:28.937Z,34.20
2023-01-20T11:18:41.812Z,32.10
2023-01-20T11:20:58.385Z,30.10
2023-01-20T11:23:23.562Z,30.10
2023-01-20T11:25:36.209Z,26.10
2023-01-20T11:27:48.971Z,31.40
2023-01-20T11:30:07.092Z,24.60
2023-01-20T11:32:41.513Z,19.80
2023-01-20T11:34:55.773Z,18.50
2023-01-20T11:37:08.323Z,24.20
2023-01-20T11:39:50.229Z,23.60
2023-01-20T11:42:28.316Z,20.90
2023-01-20T11:44:50.591Z,21.40
2023-01-20T11:47:33.890Z,20.10
2023-01-20T11:49:46.418Z,23.50
2023-01-20T11:51:59.326Z,25.10
2023-01-20T11:54:26.348Z,26.10
2023-01-20T11:56:43.188Z,25.20
2023-01-20T11:58:59.027Z,26.60
2023-01-20T12:01:22.742Z,24.90
2023-01-20T12:03:48.294Z,25.20
2023-01-20T12:07:41.043Z,20.80
2023-01-20T12:09:59.385Z,31.70
2023-01-20T12:12:28.520Z,26.20
2023-01-20T12:15:16.662Z,23.20
2023-01-20T12:17:57.470Z,18.90
2023-01-20T12:20:16.727Z,18.10
2023-01-20T12:22:44.147Z,17.70
2023-01-20T12:25:10.629Z,22.30
2023-01-20T12:27:28.188Z,21.10
2023-01-20T12:29:45.679Z,18.50
2023-01-20T12:31:58.320Z,17.30
2023-01-20T12:34:13.671Z,16.80
2023-01-20T12:37:03.293Z,16.50
2023-01-20T12:39:44.134Z,17.10
2023-01-20T12:42:05.911Z,16.30
2023-01-20T12:44:26.426Z,16.00
2023-01-20T12:46:49.469Z,18.90
2023-01-20T12:49:35.961Z,20.70
2023-01-20T12:52:25.002Z,19.00
2023-01-20T12:55:00.124Z,19.30
2023-01-20T12:57:50.693Z,19.30
2023-01-20T13:00:03.846Z,20.30
2023-01-20T13:02:16.563Z,21.60
2023-01-20T13:04:47.910Z,21.30
2023-01-20T13:07:25.072Z,22.00
2023-01-20T13:09:48.018Z,22.20
2023-01-20T13:12:33.271Z,20.60
2023-01-20T13:14:53.052Z,20.40
2023-01-20T13:17:42.047Z,22.70
2023-01-20T13:19:59.184Z,22.80
2023-01-20T13:22:20.349Z,22.50
2023-01-20T13:24:33.767Z,34.20
2023-01-20T13:26:49.151Z,28.50
2023-01-20T13:29:02.343Z,22.90
2023-01-20T13:31:44.863Z,23.70
2023-01-20T13:34:22.594Z,25.60
2023-01-20T13:36:35.191Z,22.10
2023-01-20T13:38:50.101Z,20.40
2023-01-20T13:41:05.681Z,21.20
2023-01-20T13:43:24.944Z,21.20
2023-01-20T13:45:37.596Z,20.90
2023-01-20T13:48:22.188Z,21.80
2023-01-20T13:50:37.438Z,22.80
2023-01-20T13:52:49.915Z,25.70
2023-01-20T13:55:02.444Z,25.60
2023-01-20T13:57:24.759Z,28.00
2023-01-20T13:59:37.346Z,26.90
2023-01-20T14:01:49.923Z,24.20
2023-01-20T14:04:06.702Z,21.70
2023-01-20T14:06:20.879Z,32.80
2023-01-20T14:08:45.634Z,35.80
2023-01-20T14:11:29.318Z,21.60
2023-01-20T14:13:50.890Z,18.00
2023-01-20T14:16:04.310Z,17.40
2023-01-20T14:18:20.050Z,18.20
2023-01-20T14:20:32.740Z,17.70
2023-01-20T14:22:45.265Z,17.70
2023-01-20T14:25:00.690Z,17.30
2023-01-20T14:27:22.569Z,17.10
2023-01-20T14:29:35.209Z,17.00
2023-01-20T14:31:51.038Z,17.60
2023-01-20T14:34:32.951Z,17.50
2023-01-20T14:36:46.915Z,17.20
2023-01-20T14:39:04.054Z,16.20
2023-01-20T14:41:28.548Z,16.70
2023-01-20T14:43:45.109Z,16.80
2023-01-20T14:45:57.851Z,16.40
2023-01-20T14:48:19.046Z,15.60
2023-01-20T14:50:42.536Z,15.80
2023-01-20T14:52:55.175Z,23.00
2023-01-20T14:55:27.210Z,17.90
2023-01-20T14:57:45.991Z,15.70
2023-01-20T15:00:04.610Z,15.90
2023-01-20T15:02:37.709Z,15.60
2023-01-20T15:04:50.413Z,15.50
2023-01-20T15:07:03.234Z,15.90
2023-01-20T15:09:33.998Z,16.10
2023-01-20T15:11:46.588Z,16.30
2023-01-20T15:14:02.165Z,17.10
2023-01-20T15:16:24.180Z,20.50
2023-01-20T15:18:36.759Z,25.80
2023-01-20T15:21:03.857Z,22.60
2023-01-20T15:23:34.764Z,22.50
2023-01-20T15:25:49.667Z,22.90
2023-01-20T15:28:02.281Z,29.00
2023-01-20T15:30:23.067Z,29.70
2023-01-20T15:32:35.650Z,30.90
2023-01-20T15:34:48.232Z,35.60
2023-01-20T15:37:00.910Z,34.90
2023-01-20T15:39:14.588Z,32.70
2023-01-20T15:41:27.154Z,29.10
2023-01-20T15:43:41.418Z,26.10
2023-01-20T15:45:53.975Z,26.30
2023-01-20T15:48:16.158Z,31.00
2023-01-20T15:50:31.115Z,32.50
2023-01-20T15:52:43.726Z,29.80
2023-01-20T15:54:56.311Z,28.60
2023-01-20T15:57:14.247Z,27.30
2023-01-20T15:59:30.068Z,27.60
2023-01-20T16:01:47.123Z,37.20
2023-01-20T16:03:59.903Z,34.90
2023-01-20T16:06:17.375Z,36.50
2023-01-20T16:08:36.868Z,39.80
2023-01-20T16:10:49.604Z,32.80
2023-01-20T16:13:02.179Z,32.00
2023-01-20T16:15:17.657Z,38.50
2023-01-20T16:17:30.911Z,46.70
2023-01-20T16:19:43.751Z,38.80
2023-01-20T16:21:56.375Z,33.70
2023-01-20T16:24:08.987Z,57.60
2023-01-20T16:26:27.366Z,42.00
2023-01-20T16:28:39.939Z,40.90
2023-01-20T16:30:54.092Z,38.30
2023-01-20T16:33:15.923Z,41.20
2023-01-20T16:35:29.048Z,77.10
2023-01-20T16:37:42.167Z,73.30
2023-01-20T16:39:54.802Z,48.50
2023-01-20T16:42:11.302Z,35.80
2023-01-20T16:44:23.974Z,38.10
2023-01-20T16:46:36.502Z,41.90
2023-01-20T16:48:49.767Z,51.50
2023-01-20T16:51:05.336Z,48.80
2023-01-20T16:53:19.602Z,43.20
2023-01-20T16:55:32.236Z,35.60
2023-01-20T16:57:44.803Z,42.30
2023-01-20T16:59:57.450Z,37.10
2023-01-20T17:02:11.244Z,35.10
2023-01-20T17:04:23.822Z,35.10
2023-01-20T17:06:36.481Z,41.60
2023-01-20T17:08:52.205Z,36.80
2023-01-20T17:11:05.013Z,34.90
2023-01-20T17:13:17.560Z,38.80
2023-01-20T17:15:30.263Z,36.80
2023-01-20T17:17:43.317Z,36.90
2023-01-20T17:19:55.892Z,36.80
2023-01-20T17:22:08.573Z,35.40
2023-01-20T17:24:21.186Z,36.50
2023-01-20T17:26:34.428Z,37.10
2023-01-20T17:28:47.656Z,34.80
2023-01-20T17:31:04.620Z,35.30
2023-01-20T17:33:17.315Z,37.20
2023-01-20T17:35:29.894Z,36.70
2023-01-20T17:37:42.501Z,36.90
2023-01-20T17:39:55.115Z,36.70
2023-01-20T17:42:07.975Z,37.80
2023-01-20T17:44:20.622Z,38.90
2023-01-20T17:46:33.558Z,38.10
2023-01-20T17:48:46.341Z,39.30
2023-01-20T17:50:59.362Z,39.30
2023-01-20T17:53:12.864Z,37.70
2023-01-20T17:55:25.524Z,40.30
2023-01-20T17:57:38.093Z,39.20
2023-01-20T17:59:50.639Z,39.30
2023-01-20T18:02:03.472Z,39.60
2023-01-20T18:04:16.065Z,40.00
2023-01-20T18:06:28.945Z,41.80
2023-01-20T18:08:42.611Z,43.10
2023-01-20T18:10:55.187Z,43.10
2023-01-20T18:13:07.766Z,42.20
2023-01-20T18:15:21.310Z,44.00
2023-01-20T18:17:34.394Z,42.70
2023-01-20T18:19:47.779Z,44.30
2023-01-20T18:22:01.909Z,44.60
2023-01-20T18:24:14.524Z,46.40
2023-01-20T18:26:29.888Z,43.20
2023-01-20T18:28:42.953Z,47.70
2023-01-20T18:31:00.898Z,51.40
2023-01-20T18:33:13.592Z,44.00
2023-01-20T18:35:26.191Z,44.80
2023-01-20T18:37:38.775Z,45.20
2023-01-20T18:39:51.390Z,43.40
2023-01-20T18:42:04.175Z,50.60
2023-01-20T18:44:18.122Z,47.70
2023-01-20T18:46:31.049Z,43.90
2023-01-20T18:48:46.112Z,45.20
2023-01-20T18:51:01.832Z,49.10
2023-01-20T18:53:14.361Z,46.50
2023-01-20T18:55:27.130Z,45.30
2023-01-20T18:57:40.012Z,46.80
2023-01-20T18:59:52.604Z,45.70
2023-01-20T19:02:05.322Z,45.90
2023-01-20T19:04:17.941Z,46.00
2023-01-20T19:06:34.889Z,46.40
2023-01-20T19:08:51.305Z,47.60
2023-01-20T19:11:06.857Z,49.70
2023-01-20T19:13:19.385Z,51.80
2023-01-20T19:15:33.653Z,56.50
2023-01-20T19:17:46.356Z,49.90
2023-01-20T19:19:59.433Z,49.10
2023-01-20T19:22:12.211Z,53.10
2023-01-20T19:24:28.836Z,51.00
2023-01-20T19:26:41.433Z,51.20
2023-01-20T19:29:05.929Z,49.00
2023-01-20T19:31:19.371Z,51.00
2023-01-20T19:33:33.362Z,50.70
2023-01-20T19:35:45.906Z,48.30
2023-01-20T19:37:58.558Z,49.30
2023-01-20T19:40:11.381Z,50.10
2023-01-20T19:42:25.695Z,49.60
2023-01-20T19:44:38.587Z,47.70
2023-01-20T19:46:51.430Z,47.60
2023-01-20T19:49:04.553Z,48.30
2023-01-20T19:51:19.462Z,49.70
2023-01-20T19:53:32.548Z,48.50
2023-01-20T19:55:45.406Z,46.70
2023-01-20T19:57:58.109Z,47.70
2023-01-20T20:00:11.682Z,49.00
2023-01-20T20:02:24.615Z,49.20
2023-01-20T20:04:37.530Z,50.30
2023-01-20T20:06:50.396Z,50.60
2023-01-20T20:09:10.023Z,53.50
2023-01-20T20:11:22.625Z,51.60
2023-01-20T20:13:35.402Z,54.10
2023-01-20T20:15:48.770Z,54.60
2023-01-20T20:18:01.408Z,50.60
2023-01-20T20:20:14.659Z,51.90
2023-01-20T20:22:27.372Z,51.50
2023-01-20T20:24:40.096Z,50.50
2023-01-20T20:26:52.913Z,53.40
2023-01-20T20:29:08.060Z,53.50
2023-01-20T20:31:22.415Z,55.20
2023-01-20T20:33:35.688Z,55.80
2023-01-20T20:35:48.334Z,56.60
2023-01-20T20:38:01.095Z,57.50
2023-01-20T20:40:13.968Z,56.50
2023-01-20T20:42:27.191Z,56.40
2023-01-20T20:44:40.923Z,55.30
2023-01-20T20:46:53.731Z,55.20
2023-01-20T20:49:06.386Z,54.60
2023-01-20T20:51:20.603Z,54.60
2023-01-20T20:53:33.510Z,54.60
2023-01-20T20:55:46.394Z,54.10
2023-01-20T20:57:59.646Z,53.10
2023-01-20T21:00:15.458Z,53.60
2023-01-20T21:02:28.256Z,54.00
2023-01-20T21:04:41.087Z,50.50
2023-01-20T21:06:53.646Z,51.00
2023-01-20T21:09:06.499Z,51.50
2023-01-20T21:11:20.558Z,49.90
2023-01-20T21:13:34.147Z,50.50
2023-01-20T21:16:01.530Z,49.70
2023-01-20T21:18:14.396Z,47.50
2023-01-20T21:20:27.075Z,46.30
2023-01-20T21:22:39.639Z,45.80
2023-01-20T21:24:52.171Z,46.40
2023-01-20T21:27:04.834Z,48.10
2023-01-20T21:29:17.467Z,51.60
2023-01-20T21:31:31.343Z,50.30
2023-01-20T21:33:46.852Z,49.20
2023-01-20T21:36:01.729Z,49.30
2023-01-20T21:38:14.775Z,45.40
2023-01-20T21:40:27.345Z,45.50
2023-01-20T21:42:39.926Z,46.40
2023-01-20T21:44:52.474Z,45.40
2023-01-20T21:47:10.509Z,46.10
2023-01-20T21:49:41.747Z,46.70
2023-01-20T21:52:13.744Z,47.80
2023-01-20T21:54:31.598Z,48.00
2023-01-20T21:56:44.201Z,50.10
2023-01-20T21:58:56.777Z,50.70
2023-01-20T22:01:09.911Z,48.30
2023-01-20T22:03:22.539Z,42.40
2023-01-20T22:05:38.429Z,43.60
2023-01-20T22:07:51.164Z,40.40
2023-01-20T22:10:04.710Z,43.70
2023-01-20T22:12:17.449Z,43.30
2023-01-20T22:14:32.614Z,45.20
2023-01-20T22:16:45.328Z,45.10
2023-01-20T22:18:58.090Z,46.80
2023-01-20T22:21:11.204Z,45.40
2023-01-20T22:23:23.753Z,46.10
2023-01-20T22:25:36.335Z,46.10
2023-01-20T22:27:48.854Z,47.70
2023-01-20T22:30:01.450Z,48.40
2023-01-20T22:32:14.243Z,47.80
2023-01-20T22:34:26.766Z,46.70
2023-01-20T22:36:39.640Z,47.70
2023-01-20T22:38:53.034Z,47.90
2023-01-20T22:41:08.029Z,48.20
2023-01-20T22:43:20.794Z,49.40
2023-01-20T22:45:33.382Z,46.80
2023-01-20T22:47:46.144Z,42.80
2023-01-20T22:49:58.655Z,42.60
2023-01-20T22:52:11.194Z,41.50
2023-01-20T22:54:23.939Z,37.50
2023-01-20T22:56:36.618Z,37.40
2023-01-20T22:58:49.900Z,36.80
2023-01-20T23:01:03.173Z,38.10
2023-01-20T23:03:15.807Z,39.00
2023-01-20T23:05:28.370Z,36.80
2023-01-20T23:07:40.981Z,35.80
2023-01-20T23:09:53.554Z,37.40
2023-01-20T23:12:06.347Z,37.40
2023-01-20T23:14:38.901Z,35.90
2023-01-20T23:16:51.628Z,37.50
2023-01-20T23:19:04.498Z,37.80
2023-01-20T23:21:17.568Z,40.00
2023-01-20T23:23:30.064Z,39.30
2023-01-20T23:25:42.968Z,39.00
2023-01-20T23:27:55.800Z,40.70
2023-01-20T23:30:10.220Z,40.20
2023-01-20T23:32:22.786Z,40.10
2023-01-20T23:34:35.371Z,41.40
2023-01-20T23:36:47.947Z,40.80
2023-01-20T23:39:00.579Z,39.10
2023-01-20T23:41:14.886Z,40.20
2023-01-20T23:43:27.577Z,41.00
2023-01-20T23:45:40.237Z,41.20
2023-01-20T23:47:52.794Z,41.40
2023-01-20T23:50:06.125Z,40.70
2023-01-20T23:52:19.219Z,42.60
2023-01-20T23:54:31.793Z,41.00
2023-01-20T23:56:44.375Z,41.50
2023-01-20T23:58:56.988Z,39.30
